sensor_id;sensor_type;location;lat;lon;timestamp;P1;durP1;ratioP1;P2;durP2;ratioP2
52718;SDS011;38616;42.140;24.760;2023-11-21T00:00:51;2.85;;;1.30;;
52718;SDS011;38616;42.140;24.760;2023-11-21T00:03:16;5.90;;;1.55;;
52718;SDS011;38616;42.140;24.760;2023-11-21T00:05:42;3.85;;;1.20;;
52718;SDS011;38616;42.140;24.760;2023-11-21T00:08:08;2.83;;;1.10;;
52718;SDS011;38616;42.140;24.760;2023-11-21T00:10:34;2.45;;;1.25;;
52718;SDS011;38616;42.140;24.760;2023-11-21T00:13:00;2.80;;;1.13;;
52718;SDS011;38616;42.140;24.760;2023-11-21T00:15:27;2.65;;;0.95;;
52718;SDS011;38616;42.140;24.760;2023-11-21T00:17:53;4.07;;;1.40;;
52718;SDS011;38616;42.140;24.760;2023-11-21T00:20:19;9.25;;;3.28;;
52718;SDS011;38616;42.140;24.760;2023-11-21T00:22:45;7.88;;;2.88;;
52718;SDS011;38616;42.140;24.760;2023-11-21T00:25:11;5.60;;;2.85;;
52718;SDS011;38616;42.140;24.760;2023-11-21T00:27:39;5.30;;;2.10;;
52718;SDS011;38616;42.140;24.760;2023-11-21T00:30:06;3.88;;;2.00;;
52718;SDS011;38616;42.140;24.760;2023-11-21T00:32:34;6.97;;;2.78;;
52718;SDS011;38616;42.140;24.760;2023-11-21T00:35:00;3.10;;;1.30;;
52718;SDS011;38616;42.140;24.760;2023-11-21T00:37:26;4.55;;;1.67;;
52718;SDS011;38616;42.140;24.760;2023-11-21T00:39:53;6.80;;;2.30;;
52718;SDS011;38616;42.140;24.760;2023-11-21T00:42:18;5.05;;;2.17;;
52718;SDS011;38616;42.140;24.760;2023-11-21T00:44:44;10.10;;;2.45;;
52718;SDS011;38616;42.140;24.760;2023-11-21T00:47:09;7.13;;;2.45;;
52718;SDS011;38616;42.140;24.760;2023-11-21T00:49:35;5.13;;;2.35;;
52718;SDS011;38616;42.140;24.760;2023-11-21T00:52:00;4.32;;;2.22;;
52718;SDS011;38616;42.140;24.760;2023-11-21T00:54:27;5.53;;;2.50;;
52718;SDS011;38616;42.140;24.760;2023-11-21T00:56:53;8.93;;;3.08;;
52718;SDS011;38616;42.140;24.760;2023-11-21T00:59:18;9.25;;;2.90;;
52718;SDS011;38616;42.140;24.760;2023-11-21T01:01:44;14.77;;;2.67;;
52718;SDS011;38616;42.140;24.760;2023-11-21T01:04:09;10.00;;;3.35;;
52718;SDS011;38616;42.140;24.760;2023-11-21T01:06:35;14.02;;;5.00;;
52718;SDS011;38616;42.140;24.760;2023-11-21T01:09:00;13.05;;;4.47;;
52718;SDS011;38616;42.140;24.760;2023-11-21T01:11:26;9.13;;;4.80;;
52718;SDS011;38616;42.140;24.760;2023-11-21T01:13:53;8.40;;;2.75;;
52718;SDS011;38616;42.140;24.760;2023-11-21T01:16:18;8.05;;;3.42;;
52718;SDS011;38616;42.140;24.760;2023-11-21T01:18:43;8.85;;;2.90;;
52718;SDS011;38616;42.140;24.760;2023-11-21T01:21:11;8.55;;;3.35;;
52718;SDS011;38616;42.140;24.760;2023-11-21T01:23:37;6.20;;;2.60;;
52718;SDS011;38616;42.140;24.760;2023-11-21T01:26:02;10.88;;;2.65;;
52718;SDS011;38616;42.140;24.760;2023-11-21T01:28:29;8.90;;;3.05;;
52718;SDS011;38616;42.140;24.760;2023-11-21T01:30:56;8.68;;;3.00;;
52718;SDS011;38616;42.140;24.760;2023-11-21T01:33:22;7.28;;;2.67;;
52718;SDS011;38616;42.140;24.760;2023-11-21T01:35:50;10.27;;;4.95;;
52718;SDS011;38616;42.140;24.760;2023-11-21T01:38:15;19.63;;;8.00;;
52718;SDS011;38616;42.140;24.760;2023-11-21T01:40:42;9.40;;;3.20;;
52718;SDS011;38616;42.140;24.760;2023-11-21T01:43:08;11.15;;;3.38;;
52718;SDS011;38616;42.140;24.760;2023-11-21T01:45:33;7.32;;;2.88;;
52718;SDS011;38616;42.140;24.760;2023-11-21T01:47:59;7.38;;;3.05;;
52718;SDS011;38616;42.140;24.760;2023-11-21T01:50:25;10.25;;;3.22;;
52718;SDS011;38616;42.140;24.760;2023-11-21T01:52:52;9.93;;;3.80;;
52718;SDS011;38616;42.140;24.760;2023-11-21T01:55:19;8.98;;;3.75;;
52718;SDS011;38616;42.140;24.760;2023-11-21T01:57:45;7.50;;;3.67;;
52718;SDS011;38616;42.140;24.760;2023-11-21T02:00:11;10.43;;;3.50;;
52718;SDS011;38616;42.140;24.760;2023-11-21T02:02:44;6.60;;;3.20;;
52718;SDS011;38616;42.140;24.760;2023-11-21T02:05:11;8.48;;;3.28;;
52718;SDS011;38616;42.140;24.760;2023-11-21T02:07:40;14.48;;;3.92;;
52718;SDS011;38616;42.140;24.760;2023-11-21T02:10:07;9.05;;;3.78;;
52718;SDS011;38616;42.140;24.760;2023-11-21T02:12:34;10.63;;;4.38;;
52718;SDS011;38616;42.140;24.760;2023-11-21T02:15:04;8.13;;;3.95;;
52718;SDS011;38616;42.140;24.760;2023-11-21T02:17:35;8.23;;;3.63;;
52718;SDS011;38616;42.140;24.760;2023-11-21T02:20:00;7.97;;;4.13;;
52718;SDS011;38616;42.140;24.760;2023-11-21T02:22:29;10.73;;;4.25;;
52718;SDS011;38616;42.140;24.760;2023-11-21T02:25:00;10.10;;;4.32;;
52718;SDS011;38616;42.140;24.760;2023-11-21T02:27:27;10.80;;;4.22;;
52718;SDS011;38616;42.140;24.760;2023-11-21T02:29:53;10.77;;;4.20;;
52718;SDS011;38616;42.140;24.760;2023-11-21T02:32:19;8.48;;;3.75;;
52718;SDS011;38616;42.140;24.760;2023-11-21T02:34:47;10.38;;;3.90;;
52718;SDS011;38616;42.140;24.760;2023-11-21T02:37:13;9.27;;;3.88;;
52718;SDS011;38616;42.140;24.760;2023-11-21T02:39:38;19.08;;;4.68;;
52718;SDS011;38616;42.140;24.760;2023-11-21T02:42:04;13.32;;;4.80;;
52718;SDS011;38616;42.140;24.760;2023-11-21T02:44:29;13.90;;;4.45;;
52718;SDS011;38616;42.140;24.760;2023-11-21T02:46:55;9.00;;;4.05;;
52718;SDS011;38616;42.140;24.760;2023-11-21T02:49:22;7.43;;;4.03;;
52718;SDS011;38616;42.140;24.760;2023-11-21T02:51:48;10.10;;;4.50;;
52718;SDS011;38616;42.140;24.760;2023-11-21T02:54:14;13.10;;;3.88;;
52718;SDS011;38616;42.140;24.760;2023-11-21T02:56:39;12.43;;;4.70;;
52718;SDS011;38616;42.140;24.760;2023-11-21T02:59:05;12.52;;;4.32;;
52718;SDS011;38616;42.140;24.760;2023-11-21T03:01:30;11.95;;;4.47;;
52718;SDS011;38616;42.140;24.760;2023-11-21T03:03:56;8.85;;;4.15;;
52718;SDS011;38616;42.140;24.760;2023-11-21T03:06:22;9.98;;;5.03;;
52718;SDS011;38616;42.140;24.760;2023-11-21T03:08:48;12.45;;;4.35;;
52718;SDS011;38616;42.140;24.760;2023-11-21T03:11:14;13.75;;;4.05;;
52718;SDS011;38616;42.140;24.760;2023-11-21T03:13:42;8.63;;;4.30;;
52718;SDS011;38616;42.140;24.760;2023-11-21T03:16:10;9.20;;;4.03;;
52718;SDS011;38616;42.140;24.760;2023-11-21T03:18:37;11.82;;;4.72;;
52718;SDS011;38616;42.140;24.760;2023-11-21T03:21:06;8.45;;;4.32;;
52718;SDS011;38616;42.140;24.760;2023-11-21T03:23:35;15.90;;;6.75;;
52718;SDS011;38616;42.140;24.760;2023-11-21T03:26:01;11.85;;;5.88;;
52718;SDS011;38616;42.140;24.760;2023-11-21T03:28:33;13.80;;;6.35;;
52718;SDS011;38616;42.140;24.760;2023-11-21T03:30:59;10.32;;;4.00;;
52718;SDS011;38616;42.140;24.760;2023-11-21T03:33:24;12.50;;;4.63;;
52718;SDS011;38616;42.140;24.760;2023-11-21T03:35:50;15.35;;;4.45;;
52718;SDS011;38616;42.140;24.760;2023-11-21T03:38:15;9.45;;;4.38;;
52718;SDS011;38616;42.140;24.760;2023-11-21T03:40:41;11.27;;;4.88;;
52718;SDS011;38616;42.140;24.760;2023-11-21T03:43:07;10.35;;;4.72;;
52718;SDS011;38616;42.140;24.760;2023-11-21T03:45:33;11.27;;;3.42;;
52718;SDS011;38616;42.140;24.760;2023-11-21T03:47:59;9.48;;;4.28;;
52718;SDS011;38616;42.140;24.760;2023-11-21T03:50:26;9.47;;;4.00;;
52718;SDS011;38616;42.140;24.760;2023-11-21T03:52:54;9.80;;;4.50;;
52718;SDS011;38616;42.140;24.760;2023-11-21T03:55:19;16.00;;;4.70;;
52718;SDS011;38616;42.140;24.760;2023-11-21T03:57:44;6.25;;;3.45;;
52718;SDS011;38616;42.140;24.760;2023-11-21T04:00:10;9.45;;;3.75;;
52718;SDS011;38616;42.140;24.760;2023-11-21T04:02:36;9.25;;;3.60;;
52718;SDS011;38616;42.140;24.760;2023-11-21T04:05:01;14.15;;;4.18;;
52718;SDS011;38616;42.140;24.760;2023-11-21T04:07:28;11.77;;;4.95;;
52718;SDS011;38616;42.140;24.760;2023-11-21T04:09:53;19.27;;;4.72;;
52718;SDS011;38616;42.140;24.760;2023-11-21T04:12:19;8.95;;;4.18;;
52718;SDS011;38616;42.140;24.760;2023-11-21T04:14:44;12.68;;;4.68;;
52718;SDS011;38616;42.140;24.760;2023-11-21T04:17:10;9.45;;;4.20;;
52718;SDS011;38616;42.140;24.760;2023-11-21T04:19:35;12.13;;;5.50;;
52718;SDS011;38616;42.140;24.760;2023-11-21T04:22:01;16.08;;;6.03;;
52718;SDS011;38616;42.140;24.760;2023-11-21T04:24:29;14.18;;;5.50;;
52718;SDS011;38616;42.140;24.760;2023-11-21T04:26:55;13.27;;;5.53;;
52718;SDS011;38616;42.140;24.760;2023-11-21T04:29:20;18.38;;;5.55;;
52718;SDS011;38616;42.140;24.760;2023-11-21T04:31:46;13.38;;;5.00;;
52718;SDS011;38616;42.140;24.760;2023-11-21T04:34:14;13.38;;;5.03;;
52718;SDS011;38616;42.140;24.760;2023-11-21T04:36:39;13.20;;;5.32;;
52718;SDS011;38616;42.140;24.760;2023-11-21T04:39:05;12.98;;;4.80;;
52718;SDS011;38616;42.140;24.760;2023-11-21T04:41:31;15.07;;;4.28;;
52718;SDS011;38616;42.140;24.760;2023-11-21T04:43:57;11.07;;;4.22;;
52718;SDS011;38616;42.140;24.760;2023-11-21T04:46:23;17.25;;;5.07;;
52718;SDS011;38616;42.140;24.760;2023-11-21T04:48:51;11.00;;;4.85;;
52718;SDS011;38616;42.140;24.760;2023-11-21T04:51:17;13.35;;;5.60;;
52718;SDS011;38616;42.140;24.760;2023-11-21T04:53:44;14.60;;;6.53;;
52718;SDS011;38616;42.140;24.760;2023-11-21T04:56:10;14.30;;;7.20;;
52718;SDS011;38616;42.140;24.760;2023-11-21T04:58:35;18.45;;;7.70;;
52718;SDS011;38616;42.140;24.760;2023-11-21T05:01:01;19.17;;;6.60;;
52718;SDS011;38616;42.140;24.760;2023-11-21T05:03:27;19.25;;;7.18;;
52718;SDS011;38616;42.140;24.760;2023-11-21T05:05:54;19.58;;;7.38;;
52718;SDS011;38616;42.140;24.760;2023-11-21T05:08:20;22.33;;;6.32;;
52718;SDS011;38616;42.140;24.760;2023-11-21T05:10:47;24.92;;;7.65;;
52718;SDS011;38616;42.140;24.760;2023-11-21T05:13:14;19.42;;;7.57;;
52718;SDS011;38616;42.140;24.760;2023-11-21T05:15:40;32.03;;;8.70;;
52718;SDS011;38616;42.140;24.760;2023-11-21T05:18:06;19.00;;;6.65;;
52718;SDS011;38616;42.140;24.760;2023-11-21T05:20:31;20.30;;;7.63;;
52718;SDS011;38616;42.140;24.760;2023-11-21T05:22:58;23.15;;;7.13;;
52718;SDS011;38616;42.140;24.760;2023-11-21T05:25:23;24.52;;;8.23;;
52718;SDS011;38616;42.140;24.760;2023-11-21T05:27:49;25.15;;;9.57;;
52718;SDS011;38616;42.140;24.760;2023-11-21T05:30:14;24.77;;;9.20;;
52718;SDS011;38616;42.140;24.760;2023-11-21T05:32:41;24.45;;;8.27;;
52718;SDS011;38616;42.140;24.760;2023-11-21T05:35:11;25.77;;;8.82;;
52718;SDS011;38616;42.140;24.760;2023-11-21T05:37:40;18.27;;;7.72;;
52718;SDS011;38616;42.140;24.760;2023-11-21T05:40:07;22.98;;;6.45;;
52718;SDS011;38616;42.140;24.760;2023-11-21T05:42:33;25.10;;;8.45;;
52718;SDS011;38616;42.140;24.760;2023-11-21T05:44:59;20.60;;;8.02;;
52718;SDS011;38616;42.140;24.760;2023-11-21T05:47:35;17.88;;;8.05;;
52718;SDS011;38616;42.140;24.760;2023-11-21T05:50:10;20.30;;;8.95;;
52718;SDS011;38616;42.140;24.760;2023-11-21T05:52:39;19.25;;;9.02;;
52718;SDS011;38616;42.140;24.760;2023-11-21T05:55:06;26.15;;;8.80;;
52718;SDS011;38616;42.140;24.760;2023-11-21T05:57:35;28.13;;;10.48;;
52718;SDS011;38616;42.140;24.760;2023-11-21T06:00:03;24.90;;;10.63;;
52718;SDS011;38616;42.140;24.760;2023-11-21T06:02:43;27.73;;;11.43;;
52718;SDS011;38616;42.140;24.760;2023-11-21T06:05:09;27.30;;;12.63;;
52718;SDS011;38616;42.140;24.760;2023-11-21T06:07:35;30.85;;;13.27;;
52718;SDS011;38616;42.140;24.760;2023-11-21T06:10:03;33.13;;;13.48;;
52718;SDS011;38616;42.140;24.760;2023-11-21T06:12:39;29.63;;;13.30;;
52718;SDS011;38616;42.140;24.760;2023-11-21T06:17:34;36.30;;;14.35;;
52718;SDS011;38616;42.140;24.760;2023-11-21T06:20:04;34.47;;;13.25;;
52718;SDS011;38616;42.140;24.760;2023-11-21T06:22:40;26.00;;;11.75;;
52718;SDS011;38616;42.140;24.760;2023-11-21T06:25:07;26.00;;;12.98;;
52718;SDS011;38616;42.140;24.760;2023-11-21T06:27:34;28.73;;;11.50;;
52718;SDS011;38616;42.140;24.760;2023-11-21T06:30:05;24.58;;;12.57;;
52718;SDS011;38616;42.140;24.760;2023-11-21T06:34:57;27.40;;;10.85;;
52718;SDS011;38616;42.140;24.760;2023-11-21T06:37:25;20.83;;;9.98;;
52718;SDS011;38616;42.140;24.760;2023-11-21T06:39:51;30.27;;;10.75;;
52718;SDS011;38616;42.140;24.760;2023-11-21T06:42:17;30.23;;;11.68;;
52718;SDS011;38616;42.140;24.760;2023-11-21T06:44:46;22.83;;;10.07;;
52718;SDS011;38616;42.140;24.760;2023-11-21T06:47:13;17.52;;;9.55;;
52718;SDS011;38616;42.140;24.760;2023-11-21T06:49:38;25.17;;;10.05;;
52718;SDS011;38616;42.140;24.760;2023-11-21T06:52:04;29.58;;;12.32;;
52718;SDS011;38616;42.140;24.760;2023-11-21T06:54:33;21.88;;;10.65;;
52718;SDS011;38616;42.140;24.760;2023-11-21T06:56:59;28.38;;;11.10;;
52718;SDS011;38616;42.140;24.760;2023-11-21T06:59:30;34.22;;;11.10;;
52718;SDS011;38616;42.140;24.760;2023-11-21T07:01:57;32.30;;;12.20;;
52718;SDS011;38616;42.140;24.760;2023-11-21T07:04:23;24.65;;;10.82;;
52718;SDS011;38616;42.140;24.760;2023-11-21T07:06:50;28.38;;;9.98;;
52718;SDS011;38616;42.140;24.760;2023-11-21T07:09:16;22.38;;;9.00;;
52718;SDS011;38616;42.140;24.760;2023-11-21T07:11:41;23.50;;;10.30;;
52718;SDS011;38616;42.140;24.760;2023-11-21T07:14:07;27.08;;;9.57;;
52718;SDS011;38616;42.140;24.760;2023-11-21T07:16:37;25.52;;;10.43;;
52718;SDS011;38616;42.140;24.760;2023-11-21T07:19:05;29.77;;;10.63;;
52718;SDS011;38616;42.140;24.760;2023-11-21T07:21:32;24.60;;;9.25;;
52718;SDS011;38616;42.140;24.760;2023-11-21T07:23:59;24.52;;;9.90;;
52718;SDS011;38616;42.140;24.760;2023-11-21T07:26:26;19.42;;;8.40;;
52718;SDS011;38616;42.140;24.760;2023-11-21T07:28:52;18.58;;;8.90;;
52718;SDS011;38616;42.140;24.760;2023-11-21T07:31:17;19.40;;;9.40;;
52718;SDS011;38616;42.140;24.760;2023-11-21T07:33:47;23.58;;;9.57;;
52718;SDS011;38616;42.140;24.760;2023-11-21T07:36:13;25.63;;;8.60;;
52718;SDS011;38616;42.140;24.760;2023-11-21T07:38:39;19.63;;;7.85;;
52718;SDS011;38616;42.140;24.760;2023-11-21T07:41:05;23.50;;;8.93;;
52718;SDS011;38616;42.140;24.760;2023-11-21T07:43:32;14.65;;;6.90;;
52718;SDS011;38616;42.140;24.760;2023-11-21T07:46:03;15.82;;;6.85;;
52718;SDS011;38616;42.140;24.760;2023-11-21T07:48:33;14.57;;;6.55;;
52718;SDS011;38616;42.140;24.760;2023-11-21T07:51:01;12.93;;;6.03;;
52718;SDS011;38616;42.140;24.760;2023-11-21T07:53:30;14.18;;;5.82;;
52718;SDS011;38616;42.140;24.760;2023-11-21T07:55:56;19.52;;;5.80;;
52718;SDS011;38616;42.140;24.760;2023-11-21T07:58:23;17.88;;;5.60;;
52718;SDS011;38616;42.140;24.760;2023-11-21T08:00:49;18.50;;;7.25;;
52718;SDS011;38616;42.140;24.760;2023-11-21T08:03:15;18.92;;;7.93;;
52718;SDS011;38616;42.140;24.760;2023-11-21T08:05:42;20.10;;;8.43;;
52718;SDS011;38616;42.140;24.760;2023-11-21T08:08:07;15.50;;;7.00;;
52718;SDS011;38616;42.140;24.760;2023-11-21T08:10:35;16.70;;;6.57;;
52718;SDS011;38616;42.140;24.760;2023-11-21T08:13:02;14.07;;;5.95;;
52718;SDS011;38616;42.140;24.760;2023-11-21T08:15:29;17.55;;;7.03;;
52718;SDS011;38616;42.140;24.760;2023-11-21T08:17:56;21.02;;;6.05;;
52718;SDS011;38616;42.140;24.760;2023-11-21T08:20:22;8.50;;;4.00;;
52718;SDS011;38616;42.140;24.760;2023-11-21T08:22:48;12.80;;;5.13;;
52718;SDS011;38616;42.140;24.760;2023-11-21T08:25:13;19.38;;;6.22;;
52718;SDS011;38616;42.140;24.760;2023-11-21T08:27:38;12.90;;;5.82;;
52718;SDS011;38616;42.140;24.760;2023-11-21T08:30:04;14.73;;;5.63;;
52718;SDS011;38616;42.140;24.760;2023-11-21T08:32:33;8.48;;;5.03;;
52718;SDS011;38616;42.140;24.760;2023-11-21T08:34:59;12.70;;;5.63;;
52718;SDS011;38616;42.140;24.760;2023-11-21T08:37:26;13.50;;;5.78;;
52718;SDS011;38616;42.140;24.760;2023-11-21T08:39:52;13.93;;;6.22;;
52718;SDS011;38616;42.140;24.760;2023-11-21T08:42:18;17.42;;;7.03;;
52718;SDS011;38616;42.140;24.760;2023-11-21T08:44:44;10.52;;;5.25;;
52718;SDS011;38616;42.140;24.760;2023-11-21T08:47:10;11.85;;;6.22;;
52718;SDS011;38616;42.140;24.760;2023-11-21T08:49:36;11.20;;;4.75;;
52718;SDS011;38616;42.140;24.760;2023-11-21T08:52:03;19.45;;;7.55;;
52718;SDS011;38616;42.140;24.760;2023-11-21T08:54:30;13.47;;;4.87;;
52718;SDS011;38616;42.140;24.760;2023-11-21T08:56:56;13.20;;;4.63;;
52718;SDS011;38616;42.140;24.760;2023-11-21T08:59:23;14.40;;;4.50;;
52718;SDS011;38616;42.140;24.760;2023-11-21T09:01:49;18.08;;;5.13;;
52718;SDS011;38616;42.140;24.760;2023-11-21T09:04:15;16.05;;;5.35;;
52718;SDS011;38616;42.140;24.760;2023-11-21T09:06:40;12.18;;;5.10;;
52718;SDS011;38616;42.140;24.760;2023-11-21T09:09:06;17.73;;;5.10;;
52718;SDS011;38616;42.140;24.760;2023-11-21T09:11:33;14.83;;;5.43;;
52718;SDS011;38616;42.140;24.760;2023-11-21T09:14:03;17.25;;;6.32;;
52718;SDS011;38616;42.140;24.760;2023-11-21T09:16:31;13.48;;;6.57;;
52718;SDS011;38616;42.140;24.760;2023-11-21T09:18:57;12.48;;;5.70;;
52718;SDS011;38616;42.140;24.760;2023-11-21T09:21:22;11.82;;;5.30;;
52718;SDS011;38616;42.140;24.760;2023-11-21T09:23:49;15.48;;;5.28;;
52718;SDS011;38616;42.140;24.760;2023-11-21T09:26:15;15.98;;;5.97;;
52718;SDS011;38616;42.140;24.760;2023-11-21T09:28:41;12.30;;;5.57;;
52718;SDS011;38616;42.140;24.760;2023-11-21T09:31:11;18.63;;;5.32;;
52718;SDS011;38616;42.140;24.760;2023-11-21T09:33:37;10.43;;;4.97;;
52718;SDS011;38616;42.140;24.760;2023-11-21T09:36:03;21.55;;;9.20;;
52718;SDS011;38616;42.140;24.760;2023-11-21T09:38:30;15.85;;;7.53;;
52718;SDS011;38616;42.140;24.760;2023-11-21T09:40:56;11.43;;;4.88;;
52718;SDS011;38616;42.140;24.760;2023-11-21T09:43:23;9.65;;;4.60;;
52718;SDS011;38616;42.140;24.760;2023-11-21T09:45:56;9.10;;;4.55;;
52718;SDS011;38616;42.140;24.760;2023-11-21T09:48:26;20.83;;;6.35;;
52718;SDS011;38616;42.140;24.760;2023-11-21T09:50:54;19.67;;;5.90;;
52718;SDS011;38616;42.140;24.760;2023-11-21T09:53:20;14.02;;;5.35;;
52718;SDS011;38616;42.140;24.760;2023-11-21T09:55:52;13.70;;;5.07;;
52718;SDS011;38616;42.140;24.760;2023-11-21T09:58:19;11.93;;;4.80;;
52718;SDS011;38616;42.140;24.760;2023-11-21T10:00:47;13.25;;;4.90;;
52718;SDS011;38616;42.140;24.760;2023-11-21T10:03:13;10.02;;;4.30;;
52718;SDS011;38616;42.140;24.760;2023-11-21T10:05:40;12.00;;;4.28;;
52718;SDS011;38616;42.140;24.760;2023-11-21T10:08:07;9.68;;;4.50;;
52718;SDS011;38616;42.140;24.760;2023-11-21T10:10:37;15.35;;;4.90;;
52718;SDS011;38616;42.140;24.760;2023-11-21T10:13:08;7.65;;;4.57;;
52718;SDS011;38616;42.140;24.760;2023-11-21T10:15:37;10.82;;;5.07;;
52718;SDS011;38616;42.140;24.760;2023-11-21T10:18:04;13.35;;;5.47;;
52718;SDS011;38616;42.140;24.760;2023-11-21T10:20:34;13.65;;;5.10;;
52718;SDS011;38616;42.140;24.760;2023-11-21T10:23:00;10.90;;;5.55;;
52718;SDS011;38616;42.140;24.760;2023-11-21T10:25:29;14.23;;;5.90;;
52718;SDS011;38616;42.140;24.760;2023-11-21T10:27:59;11.85;;;5.35;;
52718;SDS011;38616;42.140;24.760;2023-11-21T10:33:06;10.88;;;5.40;;
52718;SDS011;38616;42.140;24.760;2023-11-21T10:35:48;16.92;;;6.40;;
52718;SDS011;38616;42.140;24.760;2023-11-21T10:38:19;18.05;;;6.93;;
52718;SDS011;38616;42.140;24.760;2023-11-21T10:40:49;15.88;;;7.07;;
52718;SDS011;38616;42.140;24.760;2023-11-21T10:43:16;17.00;;;6.28;;
52718;SDS011;38616;42.140;24.760;2023-11-21T10:45:42;13.63;;;6.20;;
52718;SDS011;38616;42.140;24.760;2023-11-21T10:48:14;15.98;;;5.82;;
52718;SDS011;38616;42.140;24.760;2023-11-21T10:50:40;15.38;;;5.65;;
52718;SDS011;38616;42.140;24.760;2023-11-21T10:53:06;15.75;;;6.00;;
52718;SDS011;38616;42.140;24.760;2023-11-21T10:55:33;11.75;;;5.35;;
52718;SDS011;38616;42.140;24.760;2023-11-21T10:58:00;15.73;;;5.25;;
52718;SDS011;38616;42.140;24.760;2023-11-21T11:00:28;11.15;;;4.47;;
52718;SDS011;38616;42.140;24.760;2023-11-21T11:02:54;11.82;;;5.40;;
52718;SDS011;38616;42.140;24.760;2023-11-21T11:05:21;22.13;;;8.27;;
52718;SDS011;38616;42.140;24.760;2023-11-21T11:07:50;19.13;;;8.88;;
52718;SDS011;38616;42.140;24.760;2023-11-21T11:10:19;12.65;;;6.03;;
52718;SDS011;38616;42.140;24.760;2023-11-21T11:12:48;15.38;;;4.95;;
52718;SDS011;38616;42.140;24.760;2023-11-21T11:15:13;17.35;;;5.88;;
52718;SDS011;38616;42.140;24.760;2023-11-21T11:17:40;12.70;;;4.97;;
52718;SDS011;38616;42.140;24.760;2023-11-21T11:20:07;14.73;;;5.13;;
52718;SDS011;38616;42.140;24.760;2023-11-21T11:22:48;10.35;;;5.80;;
52718;SDS011;38616;42.140;24.760;2023-11-21T11:25:28;13.52;;;5.03;;
52718;SDS011;38616;42.140;24.760;2023-11-21T11:28:06;17.17;;;6.05;;
52718;SDS011;38616;42.140;24.760;2023-11-21T11:38:59;13.82;;;7.10;;
52718;SDS011;38616;42.140;24.760;2023-11-21T11:41:27;16.53;;;6.77;;
52718;SDS011;38616;42.140;24.760;2023-11-21T11:43:57;16.10;;;5.50;;
52718;SDS011;38616;42.140;24.760;2023-11-21T11:46:40;12.77;;;5.18;;
52718;SDS011;38616;42.140;24.760;2023-11-21T11:49:07;14.45;;;4.07;;
52718;SDS011;38616;42.140;24.760;2023-11-21T11:51:33;11.48;;;5.93;;
52718;SDS011;38616;42.140;24.760;2023-11-21T11:54:01;9.90;;;5.60;;
52718;SDS011;38616;42.140;24.760;2023-11-21T11:56:30;11.43;;;4.43;;
52718;SDS011;38616;42.140;24.760;2023-11-21T11:59:04;9.55;;;4.47;;
52718;SDS011;38616;42.140;24.760;2023-11-21T12:01:32;9.75;;;3.60;;
52718;SDS011;38616;42.140;24.760;2023-11-21T12:06:51;11.90;;;3.88;;
52718;SDS011;38616;42.140;24.760;2023-11-21T12:09:21;10.63;;;4.25;;
52718;SDS011;38616;42.140;24.760;2023-11-21T12:11:49;9.55;;;3.63;;
52718;SDS011;38616;42.140;24.760;2023-11-21T12:14:15;9.43;;;3.92;;
52718;SDS011;38616;42.140;24.760;2023-11-21T12:19:12;11.98;;;4.78;;
52718;SDS011;38616;42.140;24.760;2023-11-21T12:21:38;8.40;;;4.28;;
52718;SDS011;38616;42.140;24.760;2023-11-21T12:24:06;12.32;;;5.78;;
52718;SDS011;38616;42.140;24.760;2023-11-21T12:26:34;15.98;;;5.45;;
52718;SDS011;38616;42.140;24.760;2023-11-21T12:29:01;10.63;;;4.85;;
52718;SDS011;38616;42.140;24.760;2023-11-21T12:33:54;11.40;;;5.75;;
52718;SDS011;38616;42.140;24.760;2023-11-21T12:36:21;12.77;;;5.75;;
52718;SDS011;38616;42.140;24.760;2023-11-21T12:38:47;10.77;;;6.13;;
52718;SDS011;38616;42.140;24.760;2023-11-21T12:41:12;10.82;;;4.90;;
52718;SDS011;38616;42.140;24.760;2023-11-21T12:43:38;8.68;;;5.03;;
52718;SDS011;38616;42.140;24.760;2023-11-21T12:46:10;11.80;;;5.03;;
52718;SDS011;38616;42.140;24.760;2023-11-21T12:48:40;10.07;;;4.97;;
52718;SDS011;38616;42.140;24.760;2023-11-21T12:51:10;8.23;;;4.45;;
52718;SDS011;38616;42.140;24.760;2023-11-21T12:53:43;12.10;;;4.18;;
52718;SDS011;38616;42.140;24.760;2023-11-21T12:56:11;8.15;;;3.85;;
52718;SDS011;38616;42.140;24.760;2023-11-21T12:58:40;11.50;;;5.53;;
52718;SDS011;38616;42.140;24.760;2023-11-21T13:01:12;17.98;;;6.38;;
52718;SDS011;38616;42.140;24.760;2023-11-21T13:03:42;20.38;;;7.97;;
52718;SDS011;38616;42.140;24.760;2023-11-21T13:06:10;11.02;;;5.22;;
52718;SDS011;38616;42.140;24.760;2023-11-21T13:08:37;8.15;;;4.22;;
52718;SDS011;38616;42.140;24.760;2023-11-21T13:11:04;7.75;;;3.58;;
52718;SDS011;38616;42.140;24.760;2023-11-21T13:13:31;8.35;;;3.28;;
52718;SDS011;38616;42.140;24.760;2023-11-21T13:16:01;5.22;;;3.03;;
52718;SDS011;38616;42.140;24.760;2023-11-21T13:18:31;7.57;;;3.20;;
52718;SDS011;38616;42.140;24.760;2023-11-21T13:21:01;9.38;;;3.28;;
52718;SDS011;38616;42.140;24.760;2023-11-21T13:23:36;5.75;;;3.30;;
52718;SDS011;38616;42.140;24.760;2023-11-21T13:26:03;6.40;;;3.05;;
52718;SDS011;38616;42.140;24.760;2023-11-21T13:28:29;10.27;;;3.60;;
52718;SDS011;38616;42.140;24.760;2023-11-21T13:30:58;9.55;;;3.67;;
52718;SDS011;38616;42.140;24.760;2023-11-21T13:33:34;7.63;;;3.97;;
52718;SDS011;38616;42.140;24.760;2023-11-21T13:36:02;8.27;;;3.50;;
52718;SDS011;38616;42.140;24.760;2023-11-21T13:38:32;12.88;;;4.10;;
52718;SDS011;38616;42.140;24.760;2023-11-21T13:43:44;7.70;;;3.25;;
52718;SDS011;38616;42.140;24.760;2023-11-21T13:46:15;10.60;;;3.92;;
52718;SDS011;38616;42.140;24.760;2023-11-21T13:48:46;12.98;;;4.50;;
52718;SDS011;38616;42.140;24.760;2023-11-21T13:51:18;12.75;;;4.93;;
52718;SDS011;38616;42.140;24.760;2023-11-21T13:53:48;10.75;;;5.13;;
52718;SDS011;38616;42.140;24.760;2023-11-21T13:56:15;10.32;;;4.13;;
52718;SDS011;38616;42.140;24.760;2023-11-21T13:58:49;11.50;;;4.55;;
52718;SDS011;38616;42.140;24.760;2023-11-21T14:01:19;10.98;;;4.88;;
52718;SDS011;38616;42.140;24.760;2023-11-21T14:03:55;10.40;;;4.78;;
52718;SDS011;38616;42.140;24.760;2023-11-21T14:06:27;10.20;;;4.80;;
52718;SDS011;38616;42.140;24.760;2023-11-21T14:08:59;10.75;;;4.32;;
52718;SDS011;38616;42.140;24.760;2023-11-21T14:11:30;10.02;;;4.47;;
52718;SDS011;38616;42.140;24.760;2023-11-21T14:13:56;10.73;;;5.00;;
52718;SDS011;38616;42.140;24.760;2023-11-21T14:16:24;13.88;;;4.68;;
52718;SDS011;38616;42.140;24.760;2023-11-21T14:18:50;12.50;;;4.90;;
52718;SDS011;38616;42.140;24.760;2023-11-21T14:21:23;14.30;;;5.72;;
52718;SDS011;38616;42.140;24.760;2023-11-21T14:23:49;14.00;;;6.00;;
52718;SDS011;38616;42.140;24.760;2023-11-21T14:26:14;11.77;;;5.20;;
52718;SDS011;38616;42.140;24.760;2023-11-21T14:28:41;12.20;;;4.85;;
52718;SDS011;38616;42.140;24.760;2023-11-21T14:31:07;13.93;;;5.35;;
52718;SDS011;38616;42.140;24.760;2023-11-21T14:33:40;17.98;;;6.32;;
52718;SDS011;38616;42.140;24.760;2023-11-21T14:36:06;13.32;;;6.28;;
52718;SDS011;38616;42.140;24.760;2023-11-21T14:38:35;12.27;;;5.78;;
52718;SDS011;38616;42.140;24.760;2023-11-21T14:41:02;13.83;;;6.23;;
52718;SDS011;38616;42.140;24.760;2023-11-21T14:43:27;11.60;;;5.55;;
52718;SDS011;38616;42.140;24.760;2023-11-21T14:45:55;13.60;;;6.50;;
52718;SDS011;38616;42.140;24.760;2023-11-21T14:48:24;18.30;;;7.30;;
52718;SDS011;38616;42.140;24.760;2023-11-21T14:51:07;20.67;;;8.10;;